Time;durP1;ratioP1;P1;durP2;ratioP2;P2;SDS_P1;SDS_P2;PMS_P1;PMS_P2;Temp;Humidity;BMP_temperature;BMP_pressure;BME280_temperature;BME280_humidity;BME280_pressure;Samples;Min_cycle;Max_cycle;Signal;HPM_P1;HPM_P2
2022/04/25 00:04:55;;;;;;;4.33;1.83;;;;;;;17.50;58.72;95643.97;10333281;28;20046;-23
2022/04/25 00:09:55;;;;;;;4.45;1.83;;;;;;;17.58;58.47;95657.34;10360728;28;20029;-23
2022/04/25 00:14:56;;;;;;;3.53;1.43;;;;;;;17.57;59.64;95666.63;10372028;28;20519;-24
2022/04/25 00:19:56;;;;;;;4.97;1.47;;;;;;;17.63;60.93;95665.69;10332345;28;20030;-23
2022/04/25 00:24:57;;;;;;;3.38;1.33;;;;;;;17.63;60.62;95668.22;10364653;28;20069;-23
2022/04/25 00:29:58;;;;;;;6.03;1.60;;;;;;;17.60;59.62;95675.88;10362769;28;20545;-23
2022/04/25 00:34:59;;;;;;;5.10;2.00;;;;;;;17.59;59.75;95676.72;10331678;28;20201;-23
2022/04/25 00:39:59;;;;;;;5.27;1.90;;;;;;;17.57;59.83;95681.81;10331859;28;20559;-23
2022/04/25 00:44:59;;;;;;;2.60;1.20;;;;;;;17.57;59.79;95681.81;10331712;28;20041;-23
2022/04/25 00:50:00;;;;;;;2.83;1.35;;;;;;;17.57;59.92;95680.97;10331172;28;20503;-23
2022/04/25 00:55:02;;;;;;;3.07;1.80;;;;;;;17.57;59.48;95671.69;10364055;28;20381;-24
2022/04/25 01:00:11;;;;;;;4.47;2.22;;;;;;;17.55;60.23;95672.56;10357357;28;20038;-24
2022/04/25 01:05:11;;;;;;;3.60;1.73;;;;;;;17.56;59.27;95664.13;10331144;28;20038;-23
2022/04/25 01:10:12;;;;;;;5.05;1.80;;;;;;;17.55;58.68;95659.91;10361181;28;20113;-23
2022/04/25 01:15:13;;;;;;;4.13;1.50;;;;;;;17.58;60.32;95664.94;10357905;28;20034;-22
2022/04/25 01:20:13;;;;;;;3.80;1.73;;;;;;;17.61;60.44;95667.41;10330980;28;20077;-24
2022/04/25 01:30:33;;;;;;;4.90;1.48;;;;;;;17.59;59.90;95676.72;10360317;28;20385;-23
2022/04/25 01:35:34;;;;;;;2.83;1.50;;;;;;;17.57;59.40;95680.97;10330023;28;20050;-23
2022/04/25 01:40:34;;;;;;;2.10;1.10;;;;;;;17.54;59.81;95681.00;10367076;28;20042;-23
2022/04/25 01:45:34;;;;;;;3.67;1.60;;;;;;;17.55;59.48;95678.47;10366683;28;20033;-23
2022/04/25 01:50:35;;;;;;;3.93;2.00;;;;;;;17.56;59.57;95686.91;10329660;28;20023;-24
2022/04/25 01:55:35;;;;;;;6.40;1.80;;;;;;;17.55;59.24;95681.00;10328374;28;20040;-23
2022/04/25 02:00:35;;;;;;;2.88;1.10;;;;;;;17.55;59.68;95682.66;10328131;28;20030;-23
2022/04/25 02:05:36;;;;;;;4.37;1.20;;;;;;;17.55;59.27;95682.66;10328526;28;20034;-24
2022/04/25 02:10:36;;;;;;;4.53;1.30;;;;;;;17.54;59.84;95681.00;10378159;28;20022;-23
2022/04/25 02:15:36;;;;;;;3.07;1.30;;;;;;;17.54;59.68;95679.31;10354978;28;20034;-23
2022/04/25 02:20:37;;;;;;;4.03;1.60;;;;;;;17.59;60.31;95669.97;10327559;28;20301;-22
2022/04/25 02:25:37;;;;;;;5.50;1.80;;;;;;;17.61;60.17;95675.00;10327259;28;20064;-21
2022/04/25 02:30:38;;;;;;;3.63;1.47;;;;;;;17.59;59.54;95676.72;10326933;28;20026;-21
2022/04/25 02:35:38;;;;;;;3.20;1.30;;;;;;;17.55;59.23;95683.53;10327380;28;20895;-21
2022/04/25 02:40:38;;;;;;;2.60;1.93;;;;;;;17.55;59.32;95696.19;10327186;28;20034;-21
2022/04/25 02:45:39;;;;;;;4.53;1.27;;;;;;;17.55;59.13;95708.84;10326306;28;20320;-22
2022/04/25 02:50:40;;;;;;;4.65;1.50;;;;;;;17.55;58.96;95713.03;10326860;28;20038;-21
2022/04/25 02:55:41;;;;;;;2.13;1.27;;;;;;;17.55;59.26;95707.97;10326835;28;20036;-21
2022/04/25 03:00:42;;;;;;;2.05;1.52;;;;;;;17.53;59.52;95709.69;10326406;28;20687;-22
2022/04/25 03:05:44;;;;;;;2.97;1.73;;;;;;;17.54;59.12;95713.91;10367935;28;20040;-22
2022/04/25 03:10:45;;;;;;;3.22;1.50;;;;;;;17.53;59.02;95710.56;10362850;28;20114;-22
2022/04/25 03:15:47;;;;;;;4.97;1.15;;;;;;;17.54;59.40;95712.22;10358546;28;20269;-21
2022/04/25 03:20:49;;;;;;;2.60;1.17;;;;;;;17.49;59.72;95690.38;10325341;28;20039;-23
2022/04/25 03:25:51;;;;;;;3.45;1.70;;;;;;;17.62;59.71;95704.53;10326412;28;20038;-21
2022/04/25 03:30:51;;;;;;;3.95;1.17;;;;;;;17.58;59.07;95702.91;10326252;28;20220;-21
2022/04/25 03:35:51;;;;;;;3.37;1.30;;;;;;;17.56;58.95;95712.22;10340599;28;20539;-22
2022/04/25 03:40:52;;;;;;;1.50;1.17;;;;;;;17.56;57.64;95717.28;10327016;28;20386;-21
2022/04/25 03:45:52;;;;;;;3.10;1.30;;;;;;;17.57;58.34;95709.63;10346834;28;20407;-21
2022/04/25 03:50:53;;;;;;;2.67;1.75;;;;;;;17.58;57.57;95713.03;10362000;28;20625;-21
2022/04/25 04:01:12;;;;;;;4.20;1.80;;;;;;;17.60;56.24;95723.97;10366018;28;20033;-21
2022/04/25 04:06:13;;;;;;;2.50;1.10;;;;;;;17.62;57.19;95719.72;10354767;28;20093;-21
2022/04/25 04:11:14;;;;;;;3.28;1.20;;;;;;;17.63;56.55;95722.22;10369122;28;20109;-21
2022/04/25 04:16:14;;;;;;;2.20;1.77;;;;;;;17.64;57.00;95725.56;10359502;28;20034;-20
2022/04/25 04:21:14;;;;;;;3.05;1.80;;;;;;;17.64;58.94;95723.03;10352528;28;20452;-22
2022/04/25 04:26:15;;;;;;;2.43;1.13;;;;;;;17.65;58.74;95723.03;10361616;28;20034;-21
2022/04/25 04:31:15;;;;;;;5.73;1.43;;;;;;;17.66;58.17;95722.19;10358873;28;20034;-21
2022/04/25 04:36:18;;;;;;;3.43;1.10;;;;;;;17.66;57.24;95728.94;10356524;28;20062;-21
2022/04/25 04:41:18;;;;;;;3.30;1.25;;;;;;;17.66;57.29;95731.47;10368450;28;20076;-22
2022/04/25 04:46:19;;;;;;;4.77;1.57;;;;;;;17.46;58.44;95708.09;10354202;28;20044;-22
2022/04/25 04:51:19;;;;;;;2.03;1.10;;;;;;;17.37;57.28;95729.31;10364766;28;20112;-22
2022/04/25 04:56:19;;;;;;;3.57;1.17;;;;;;;17.26;56.77;95733.59;10351860;28;20085;-21
2022/04/25 05:01:20;;;;;;;4.13;1.33;;;;;;;17.17;56.88;95740.44;10334967;28;20038;-21
2022/04/25 05:06:21;;;;;;;5.30;0.88;;;;;;;17.40;56.92;95748.66;10366251;28;20615;-21
2022/04/25 05:11:22;;;;;;;4.93;1.40;;;;;;;17.54;56.77;95752.72;10370452;28;20037;-21
2022/04/25 05:16:22;;;;;;;3.88;0.95;;;;;;;17.56;57.00;95750.19;10363795;28;20030;-21
2022/04/25 05:21:23;;;;;;;6.57;1.93;;;;;;;17.60;58.23;95756.84;10333557;28;20033;-21
2022/04/25 05:26:23;;;;;;;10.17;1.90;;;;;;;17.62;57.36;95752.59;10370006;28;20060;-21
2022/04/25 05:31:24;;;;;;;3.20;1.05;;;;;;;17.67;57.58;95753.41;10359652;28;20513;-22
2022/04/25 05:36:24;;;;;;;9.32;1.65;;;;;;;17.48;56.13;95762.06;10330042;28;20398;-20
2022/04/25 05:41:25;;;;;;;3.83;1.67;;;;;;;17.58;57.41;95763.63;10327111;28;20030;-20
2022/04/25 05:46:25;;;;;;;10.57;1.40;;;;;;;17.60;57.03;95751.78;10328961;28;20297;-22
2022/04/25 05:56:45;;;;;;;3.78;1.60;;;;;;;17.61;56.81;95756.84;10369741;28;20261;-21
2022/04/25 06:01:46;;;;;;;6.30;1.02;;;;;;;17.62;57.36;95770.31;10359273;28;20125;-21
2022/04/25 06:06:46;;;;;;;4.60;1.17;;;;;;;17.61;56.84;95768.66;10327853;28;20034;-21
2022/04/25 06:11:49;;;;;;;3.00;0.90;;;;;;;17.62;56.99;95775.38;10371889;28;20087;-21
2022/04/25 06:16:49;;;;;;;2.63;0.93;;;;;;;17.60;56.92;95782.16;10354348;28;20517;-21
2022/04/25 06:21:49;;;;;;;6.77;1.50;;;;;;;17.62;58.77;95780.44;10327834;28;20026;-20
2022/04/25 06:26:50;;;;;;;2.70;0.90;;;;;;;17.63;59.08;95777.06;10327520;28;20042;-20
2022/04/25 06:31:50;;;;;;;5.80;1.43;;;;;;;17.64;58.48;95768.59;10340389;28;20033;-20
2022/04/25 06:36:50;;;;;;;2.55;1.10;;;;;;;17.63;58.09;95761.88;10359905;28;20050;-20
2022/04/25 06:41:51;;;;;;;6.77;1.17;;;;;;;17.61;57.33;95758.53;10327497;28;20047;-20
2022/04/25 06:46:51;;;;;;;3.70;1.00;;;;;;;17.57;57.96;95752.66;10345130;28;20160;-20
2022/04/25 06:51:58;;;;;;;2.87;0.90;;;;;;;17.59;57.25;95745.88;10359041;28;20038;-21
2022/04/25 06:56:58;;;;;;;1.77;0.80;;;;;;;17.59;57.06;95745.06;10326958;28;20042;-21
2022/04/25 07:02:00;;;;;;;2.80;1.13;;;;;;;17.58;57.99;95748.44;10326752;28;20093;-21
2022/04/25 07:07:01;;;;;;;3.70;1.20;;;;;;;17.58;57.49;95754.34;10326796;28;20041;-21
2022/04/25 07:12:02;;;;;;;1.98;1.00;;;;;;;17.60;57.54;95744.19;10372852;28;20040;-20
2022/04/25 07:17:03;;;;;;;1.33;1.00;;;;;;;17.58;58.05;95744.22;10351758;28;20034;-21
2022/04/25 07:32:42;;;;;;;4.25;1.00;;;;;;;17.62;58.69;95772.84;10333782;28;20038;-22
2022/04/25 07:37:42;;;;;;;1.85;0.90;;;;;;;17.60;58.08;95787.22;10334414;28;20485;-20
2022/04/25 07:42:43;;;;;;;3.90;0.97;;;;;;;17.61;58.26;95804.09;10334094;28;20121;-21
2022/04/25 07:47:45;;;;;;;3.42;0.75;;;;;;;17.59;57.62;95805.81;10333617;28;20783;-21
2022/04/25 07:52:45;;;;;;;2.63;0.93;;;;;;;17.57;57.64;95803.28;10333585;28;20085;-20
2022/04/25 07:57:46;;;;;;;1.53;0.60;;;;;;;17.59;57.97;95810.88;10334074;28;20088;-20
2022/04/25 08:02:46;;;;;;;0.93;0.70;;;;;;;17.57;57.67;95810.88;10331502;28;20046;-21
2022/04/25 08:07:47;;;;;;;1.73;0.73;;;;;;;17.57;58.49;95810.06;10333229;28;20360;-21
2022/04/25 08:18:06;;;;;;;2.28;0.77;;;;;;;17.56;58.46;95824.38;10340590;28;20038;-20
2022/04/25 08:23:11;;;;;;;2.60;1.20;;;;;;;17.55;57.42;95816.78;10331766;28;20034;-21
2022/04/25 08:28:14;;;;;;;1.55;0.88;;;;;;;17.61;59.16;95821.81;10331666;28;20034;-21
2022/04/25 08:33:14;;;;;;;1.77;1.13;;;;;;;17.61;59.10;95819.28;10331821;28;20034;-21
2022/04/25 08:38:15;;;;;;;3.40;0.97;;;;;;;17.59;58.45;95831.94;10331437;28;20061;-20
2022/04/25 08:43:15;;;;;;;1.27;1.00;;;;;;;17.56;57.92;95841.28;10331164;28;20121;-21
2022/04/25 08:48:19;;;;;;;1.08;0.70;;;;;;;17.55;58.21;95844.63;10331443;28;20048;-20
2022/04/25 08:53:22;;;;;;;1.95;1.13;;;;;;;17.55;58.18;95844.63;10331177;28;20058;-21
2022/04/25 08:58:23;;;;;;;1.17;0.70;;;;;;;17.51;57.28;95848.06;10330898;28;20453;-20
2022/04/25 09:03:24;;;;;;;1.95;0.60;;;;;;;17.53;58.35;95851.41;10330865;28;20058;-21
2022/04/25 09:08:25;;;;;;;1.40;0.80;;;;;;;17.53;56.86;95875.03;10354679;28;20138;-20
2022/04/25 09:13:25;;;;;;;1.70;0.80;;;;;;;17.54;58.01;95885.97;10378518;28;20085;-21
2022/04/25 09:18:25;;;;;;;1.30;0.60;;;;;;;17.52;57.14;95880.09;10370235;28;20367;-20
2022/04/25 09:23:26;;;;;;;1.80;0.70;;;;;;;17.54;57.14;95908.75;10349145;28;20516;-21
2022/04/25 09:28:26;;;;;;;2.20;1.00;;;;;;;17.55;58.94;95915.50;10330506;28;20398;-20
2022/04/25 09:33:27;;;;;;;1.90;0.80;;;;;;;17.59;59.19;95922.22;10356050;28;20645;-21
2022/04/25 09:38:32;;;;;;;1.42;0.63;;;;;;;17.59;58.91;95967.78;10348410;28;20073;-20
2022/04/25 09:43:35;;;;;;;1.45;0.70;;;;;;;17.52;57.96;95959.41;10329363;28;20062;-21
2022/04/25 09:48:39;;;;;;;1.33;0.80;;;;;;;17.47;58.08;95972.91;10358901;28;20154;-21
2022/04/25 09:53:42;;;;;;;1.27;0.57;;;;;;;17.50;57.89;95988.09;10346504;28;20030;-20
2022/04/25 09:58:44;;;;;;;1.30;0.80;;;;;;;17.50;58.41;95998.22;10328930;28;20464;-21
2022/04/25 10:03:45;;;;;;;0.90;0.65;;;;;;;17.43;58.13;95979.72;10353924;28;20644;-21
2022/04/25 10:08:46;;;;;;;1.27;0.73;;;;;;;17.51;58.20;95994.84;10359566;28;20125;-20
2022/04/25 10:13:47;;;;;;;3.00;1.10;;;;;;;17.49;57.85;95997.38;10373870;28;20048;-20
2022/04/25 10:18:47;;;;;;;2.00;0.80;;;;;;;17.40;56.75;95987.31;10367828;28;20029;-19
2022/04/25 10:23:49;;;;;;;1.50;0.80;;;;;;;17.52;56.70;95986.38;10344408;28;20497;-21
2022/04/25 10:29:08;;;;;;;2.92;1.17;;;;;;;17.56;58.35;95972.88;10328406;28;20044;-20
2022/04/25 10:34:09;;;;;;;1.05;0.50;;;;;;;17.58;58.88;95946.69;10368361;28;20042;-21
2022/04/25 10:39:20;;;;;;;1.35;1.20;;;;;;;17.60;58.66;95961.84;10340497;28;20034;-21
2022/04/25 10:44:20;;;;;;;1.65;0.57;;;;;;;17.59;57.12;95962.72;10327404;28;20035;-21
2022/04/25 10:49:31;;;;;;;3.33;0.88;;;;;;;17.55;57.04;95966.09;10363546;28;20064;-20
2022/04/25 10:54:48;;;;;;;1.42;0.80;;;;;;;17.56;56.32;95955.16;10337618;28;20057;-21
2022/04/25 10:59:48;;;;;;;;;;;;;;;17.57;56.24;95949.25;10327307;28;20068;-21
2022/04/25 11:05:10;;;;;;;2.97;1.10;;;;;;;17.53;56.22;95960.22;10326942;28;19914;-21
2022/04/25 11:10:42;;;;;;;5.97;2.80;;;;;;;17.46;57.58;95966.19;10356941;28;20065;-21
2022/04/25 11:15:48;;;;;;;21.70;8.65;;;;;;;17.58;57.01;95984.63;10361552;28;20528;-20
2022/04/25 11:21:08;;;;;;;17.65;5.82;;;;;;;17.57;57.03;95980.44;10326917;28;20035;-21
2022/04/25 11:26:30;;;;;;;20.40;8.55;;;;;;;17.55;57.36;95981.28;10326054;28;20031;-21
2022/04/25 11:31:32;;;;;;;25.95;10.43;;;;;;;17.60;58.80;95995.63;10325904;28;20583;-20
2022/04/25 11:36:37;;;;;;;24.05;10.43;;;;;;;17.60;59.22;95994.75;10331501;28;20041;-21
2022/04/25 11:41:39;;;;;;;20.33;8.53;;;;;;;17.61;59.36;96001.50;10372396;28;20488;-21
2022/04/25 11:46:41;;;;;;;18.75;7.80;;;;;;;17.57;58.69;96004.91;10364468;28;20378;-20
2022/04/25 11:51:43;;;;;;;16.60;6.43;;;;;;;17.57;58.30;95994.78;10380199;28;20022;-22
2022/04/25 11:56:43;;;;;;;7.93;3.88;;;;;;;17.56;56.52;96004.06;10382772;28;20122;-21
2022/04/25 12:01:52;;;;;;;9.27;4.37;;;;;;;17.57;56.40;96000.69;10379054;28;20036;-21
2022/04/25 12:07:06;;;;;;;11.48;4.60;;;;;;;17.59;56.79;95995.63;10385648;28;20292;-21
2022/04/25 12:17:41;;;;;;;11.57;4.80;;;;;;;17.57;56.78;95989.75;10393323;28;20180;-21
2022/04/25 12:22:58;;;;;;;18.15;6.90;;;;;;;17.57;58.57;95990.56;10379342;28;20511;-20
2022/04/25 12:28:13;;;;;;;15.32;6.05;;;;;;;17.55;56.81;95992.28;10373723;28;20459;-20
2022/04/25 12:33:15;;;;;;;26.92;8.32;;;;;;;17.59;59.07;95982.97;10371274;28;20516;-21
2022/04/25 12:38:36;;;;;;;20.67;7.68;;;;;;;17.60;58.76;95979.56;10352850;28;20042;-21
2022/04/25 12:43:42;;;;;;;23.42;8.18;;;;;;;17.62;59.16;95972.81;10331420;28;20034;-19
2022/04/25 12:49:13;;;;;;;15.60;5.67;;;;;;;17.54;57.06;95974.56;10336566;28;20034;-21
2022/04/25 12:54:20;;;;;;;11.48;4.97;;;;;;;17.57;56.99;95960.19;10373677;28;20037;-21
2022/04/25 12:59:26;;;;;;;7.55;4.28;;;;;;;17.59;57.10;95962.72;10368566;28;20034;-20
2022/04/25 13:04:26;;;;;;;15.00;4.90;;;;;;;17.58;56.45;95961.03;10386810;28;20030;-21
2022/04/25 13:09:27;;;;;;;11.75;4.55;;;;;;;17.61;56.46;95976.19;10397736;28;20492;-21
2022/04/25 13:14:27;;;;;;;13.33;5.30;;;;;;;17.57;57.99;95979.63;10398056;28;20044;-20
2022/04/25 13:19:27;;;;;;;39.43;7.90;;;;;;;17.57;57.19;95977.91;10375343;28;20133;-19
2022/04/25 13:24:28;;;;;;;16.57;5.07;;;;;;;17.57;56.75;95967.78;10367773;28;20168;-21
2022/04/25 13:29:28;;;;;;;13.90;4.50;;;;;;;17.59;56.66;95972.84;10365711;28;20370;-21
2022/04/25 13:34:29;;;;;;;20.33;7.93;;;;;;;17.70;60.70;95960.91;10385994;28;20075;-20
2022/04/25 13:39:30;;;;;;;24.25;7.28;;;;;;;17.75;61.17;95964.25;10339802;28;20351;-20
2022/04/25 13:44:31;;;;;;;16.83;5.15;;;;;;;17.73;57.97;95965.97;10348136;28;20044;-21
2022/04/25 13:49:32;;;;;;;13.02;4.35;;;;;;;17.68;56.73;95965.97;10369816;28;20075;-21
2022/04/25 13:54:33;;;;;;;13.40;4.20;;;;;;;17.62;56.74;95961.00;10339477;28;20033;-21
2022/04/25 13:59:33;;;;;;;11.07;3.83;;;;;;;17.58;56.51;95955.97;10328491;28;20189;-20
2022/04/25 14:04:34;;;;;;;8.07;4.53;;;;;;;17.56;56.41;95958.50;10341226;28;20151;-21
2022/04/25 14:09:34;;;;;;;17.87;4.40;;;;;;;17.65;56.46;95963.50;10382760;28;20060;-20
2022/04/25 14:14:36;;;;;;;9.77;3.63;;;;;;;17.66;56.70;95965.16;10380492;28;20036;-21
2022/04/25 14:19:36;;;;;;;9.63;3.85;;;;;;;17.70;56.82;95976.09;10367091;28;20034;-20
2022/04/25 14:24:37;;;;;;;9.20;3.53;;;;;;;17.71;56.25;95977.78;10337406;28;20042;-21
2022/04/25 14:29:37;;;;;;;13.73;4.73;;;;;;;17.70;56.23;95986.22;10358309;28;20128;-20
2022/04/25 14:34:37;;;;;;;17.87;5.63;;;;;;;17.75;58.12;96007.28;10363753;28;20026;-21
2022/04/25 14:39:38;;;;;;;31.23;6.50;;;;;;;17.83;61.00;96005.53;10336745;28;20295;-21
2022/04/25 14:44:38;;;;;;;15.98;6.18;;;;;;;17.85;59.18;96004.69;10367600;28;20120;-21
2022/04/25 14:54:59;;;;;;;9.63;5.20;;;;;;;17.67;56.63;96026.78;10359547;28;20034;-20
2022/04/25 14:59:59;;;;;;;14.07;5.55;;;;;;;17.63;56.75;96040.28;10368197;28;20159;-21
2022/04/25 15:05:00;;;;;;;25.83;6.33;;;;;;;17.62;57.20;96058.84;10357223;28;20037;-21
2022/04/25 15:10:00;;;;;;;13.60;5.07;;;;;;;17.64;57.11;96062.22;10361807;28;20037;-21
2022/04/25 15:15:01;;;;;;;11.63;4.32;;;;;;;17.59;57.33;96069.00;10383263;28;20125;-20
2022/04/25 15:20:02;;;;;;;10.80;4.00;;;;;;;17.60;57.53;96090.94;10377959;28;20037;-20
2022/04/25 15:25:02;;;;;;;14.05;4.10;;;;;;;17.61;57.53;96113.72;10392733;28;20069;-21
2022/04/25 15:30:04;;;;;;;16.65;5.15;;;;;;;17.63;58.83;96116.22;10385188;28;20455;-21
2022/04/25 15:35:04;;;;;;;16.42;4.40;;;;;;;17.73;58.53;96135.59;10383762;28;20091;-23
2022/04/25 15:40:06;;;;;;;17.38;5.47;;;;;;;17.94;59.49;96143.03;10380153;28;20030;-23
2022/04/25 15:45:06;;;;;;;13.65;4.10;;;;;;;17.79;57.48;96117.81;10380294;28;20165;-21
2022/04/25 15:50:08;;;;;;;12.80;3.20;;;;;;;18.09;57.61;96153.88;10396234;28;20629;-22
2022/04/25 16:00:28;;;;;;;14.02;5.22;;;;;;;18.13;57.69;96155.53;10359977;28;20393;-20
2022/04/25 16:05:28;;;;;;;14.65;5.78;;;;;;;18.02;57.96;96159.00;10373840;28;20041;-20
2022/04/25 16:10:29;;;;;;;21.30;5.97;;;;;;;18.03;57.46;96158.16;10368348;28;20037;-21
2022/04/25 16:15:29;;;;;;;12.85;5.55;;;;;;;18.05;57.30;96137.03;10372181;28;20050;-21
2022/04/25 16:20:30;;;;;;;25.90;5.77;;;;;;;18.14;57.75;96141.16;10373353;28;20082;-21
2022/04/25 16:25:31;;;;;;;13.63;4.22;;;;;;;18.17;57.81;96143.69;10335304;28;20386;-21
2022/04/25 16:30:31;;;;;;;12.05;4.63;;;;;;;18.06;57.68;96145.44;10332950;28;20038;-21
2022/04/25 16:35:31;;;;;;;17.60;4.50;;;;;;;18.02;57.86;96146.34;10332201;28;20052;-21
2022/04/25 16:40:32;;;;;;;15.87;4.60;;;;;;;18.13;58.24;96154.69;10331826;28;20069;-21
2022/04/25 16:45:32;;;;;;;13.10;4.68;;;;;;;18.16;57.88;96144.56;10331181;28;20104;-21
2022/04/25 16:50:33;;;;;;;11.05;4.35;;;;;;;18.21;57.83;96152.94;10354946;28;20045;-22
2022/04/25 16:55:33;;;;;;;12.87;4.73;;;;;;;18.25;57.42;96159.69;10367115;28;20045;-22
2022/04/25 17:00:34;;;;;;;10.33;4.50;;;;;;;18.25;57.68;96159.69;10350135;28;20289;-21
2022/04/25 17:05:34;;;;;;;23.10;4.93;;;;;;;18.18;58.41;96168.19;10362803;28;20281;-22
2022/04/25 17:10:34;;;;;;;17.03;4.33;;;;;;;18.19;57.63;96157.19;10363525;28;20541;-21
2022/04/25 17:15:35;;;;;;;13.18;5.00;;;;;;;18.18;57.55;96163.13;10358060;28;20125;-21
2022/04/25 17:20:35;;;;;;;14.50;5.10;;;;;;;18.10;57.62;96165.72;10369614;28;20120;-21
2022/04/25 17:25:37;;;;;;;11.00;4.50;;;;;;;18.06;57.43;96168.25;10331892;28;20054;-21
2022/04/25 17:30:40;;;;;;;12.20;4.20;;;;;;;18.01;57.67;96154.78;10333459;28;20121;-24
2022/04/25 17:35:44;;;;;;;10.70;4.63;;;;;;;17.98;57.92;96165.78;10369464;28;20030;-22
